sensor_id;sensor_type;location;lat;lon;timestamp;P1;durP1;ratioP1;P2;durP2;ratioP2
46437;SDS011;32137;48.728;9.142;2023-03-20T00:03:38;4.20;;;2.70;;
46437;SDS011;32137;48.728;9.142;2023-03-20T00:06:03;4.00;;;2.80;;
46437;SDS011;32137;48.728;9.142;2023-03-20T00:08:29;3.08;;;2.78;;
46437;SDS011;32137;48.728;9.142;2023-03-20T00:10:56;3.47;;;2.97;;
46437;SDS011;32137;48.728;9.142;2023-03-20T00:13:23;6.45;;;3.83;;
46437;SDS011;32137;48.728;9.142;2023-03-20T00:15:50;3.67;;;2.70;;
46437;SDS011;32137;48.728;9.142;2023-03-20T00:18:19;4.80;;;2.92;;
46437;SDS011;32137;48.728;9.142;2023-03-20T00:20:47;4.75;;;2.95;;
46437;SDS011;32137;48.728;9.142;2023-03-20T00:23:14;3.80;;;2.78;;
46437;SDS011;32137;48.728;9.142;2023-03-20T00:25:41;4.57;;;3.10;;
46437;SDS011;32137;48.728;9.142;2023-03-20T00:31:09;4.75;;;3.20;;
46437;SDS011;32137;48.728;9.142;2023-03-20T00:33:48;4.07;;;3.20;;
46437;SDS011;32137;48.728;9.142;2023-03-20T00:36:14;3.45;;;2.88;;
46437;SDS011;32137;48.728;9.142;2023-03-20T00:38:40;5.93;;;3.10;;
46437;SDS011;32137;48.728;9.142;2023-03-20T00:41:16;3.92;;;2.97;;
46437;SDS011;32137;48.728;9.142;2023-03-20T00:43:47;6.72;;;3.97;;
46437;SDS011;32137;48.728;9.142;2023-03-20T00:46:16;5.50;;;3.15;;
46437;SDS011;32137;48.728;9.142;2023-03-20T00:48:42;5.10;;;3.60;;
46437;SDS011;32137;48.728;9.142;2023-03-20T00:51:08;5.53;;;3.85;;
46437;SDS011;32137;48.728;9.142;2023-03-20T00:53:34;6.30;;;3.63;;
46437;SDS011;32137;48.728;9.142;2023-03-20T00:56:00;5.13;;;3.80;;
46437;SDS011;32137;48.728;9.142;2023-03-20T00:58:26;5.85;;;4.15;;
46437;SDS011;32137;48.728;9.142;2023-03-20T01:00:52;7.55;;;5.15;;
46437;SDS011;32137;48.728;9.142;2023-03-20T01:03:19;6.72;;;4.10;;
46437;SDS011;32137;48.728;9.142;2023-03-20T01:08:19;8.63;;;4.05;;
46437;SDS011;32137;48.728;9.142;2023-03-20T01:10:47;5.28;;;3.53;;
46437;SDS011;32137;48.728;9.142;2023-03-20T01:13:19;4.60;;;3.45;;
46437;SDS011;32137;48.728;9.142;2023-03-20T01:15:50;6.00;;;4.55;;
46437;SDS011;32137;48.728;9.142;2023-03-20T01:18:17;6.40;;;4.13;;
46437;SDS011;32137;48.728;9.142;2023-03-20T01:20:44;5.85;;;3.70;;
46437;SDS011;32137;48.728;9.142;2023-03-20T01:23:11;5.10;;;3.25;;
46437;SDS011;32137;48.728;9.142;2023-03-20T01:25:37;3.70;;;3.03;;
46437;SDS011;32137;48.728;9.142;2023-03-20T01:28:10;3.70;;;2.70;;
46437;SDS011;32137;48.728;9.142;2023-03-20T01:30:42;3.30;;;2.58;;
46437;SDS011;32137;48.728;9.142;2023-03-20T01:33:18;4.15;;;3.00;;
46437;SDS011;32137;48.728;9.142;2023-03-20T01:35:45;4.25;;;2.63;;
46437;SDS011;32137;48.728;9.142;2023-03-20T01:38:25;3.90;;;2.70;;
46437;SDS011;32137;48.728;9.142;2023-03-20T01:43:36;3.88;;;2.60;;
46437;SDS011;32137;48.728;9.142;2023-03-20T01:51:29;2.55;;;1.77;;
46437;SDS011;32137;48.728;9.142;2023-03-20T02:01:59;1.92;;;1.25;;
46437;SDS011;32137;48.728;9.142;2023-03-20T02:04:30;1.33;;;1.10;;
46437;SDS011;32137;48.728;9.142;2023-03-20T02:06:59;1.92;;;1.00;;
46437;SDS011;32137;48.728;9.142;2023-03-20T02:09:25;1.40;;;1.10;;
46437;SDS011;32137;48.728;9.142;2023-03-20T02:11:51;1.48;;;1.00;;
46437;SDS011;32137;48.728;9.142;2023-03-20T02:14:18;2.65;;;1.10;;
46437;SDS011;32137;48.728;9.142;2023-03-20T02:16:44;1.73;;;1.30;;
46437;SDS011;32137;48.728;9.142;2023-03-20T02:19:14;1.60;;;1.25;;
46437;SDS011;32137;48.728;9.142;2023-03-20T02:28:18;1.58;;;0.82;;
46437;SDS011;32137;48.728;9.142;2023-03-20T02:33:26;1.25;;;0.70;;
46437;SDS011;32137;48.728;9.142;2023-03-20T02:38:55;1.52;;;1.08;;
46437;SDS011;32137;48.728;9.142;2023-03-20T02:44:23;2.17;;;0.88;;
46437;SDS011;32137;48.728;9.142;2023-03-20T02:52:04;4.95;;;1.08;;
46437;SDS011;32137;48.728;9.142;2023-03-20T02:54:59;1.23;;;0.73;;
46437;SDS011;32137;48.728;9.142;2023-03-20T03:00:28;1.35;;;0.70;;
46437;SDS011;32137;48.728;9.142;2023-03-20T03:03:08;1.13;;;0.65;;
46437;SDS011;32137;48.728;9.142;2023-03-20T03:05:43;1.00;;;0.60;;
46437;SDS011;32137;48.728;9.142;2023-03-20T03:08:14;1.13;;;0.80;;
46437;SDS011;32137;48.728;9.142;2023-03-20T03:10:46;1.98;;;1.38;;
46437;SDS011;32137;48.728;9.142;2023-03-20T03:13:20;1.20;;;0.75;;
46437;SDS011;32137;48.728;9.142;2023-03-20T03:15:50;0.98;;;0.57;;
46437;SDS011;32137;48.728;9.142;2023-03-20T03:18:19;1.35;;;0.70;;
46437;SDS011;32137;48.728;9.142;2023-03-20T03:20:49;1.08;;;0.65;;
46437;SDS011;32137;48.728;9.142;2023-03-20T03:23:30;3.13;;;0.90;;
46437;SDS011;32137;48.728;9.142;2023-03-20T03:25:59;1.52;;;1.00;;
46437;SDS011;32137;48.728;9.142;2023-03-20T03:28:29;1.63;;;0.85;;
46437;SDS011;32137;48.728;9.142;2023-03-20T03:31:01;0.85;;;0.65;;
46437;SDS011;32137;48.728;9.142;2023-03-20T03:33:29;3.75;;;1.08;;
46437;SDS011;32137;48.728;9.142;2023-03-20T03:36:00;2.03;;;1.00;;
46437;SDS011;32137;48.728;9.142;2023-03-20T03:41:36;2.20;;;1.35;;
46437;SDS011;32137;48.728;9.142;2023-03-20T03:49:28;1.67;;;0.73;;
46437;SDS011;32137;48.728;9.142;2023-03-20T03:51:59;1.27;;;0.80;;
46437;SDS011;32137;48.728;9.142;2023-03-20T03:54:39;4.93;;;1.10;;
46437;SDS011;32137;48.728;9.142;2023-03-20T03:57:12;2.13;;;1.02;;
46437;SDS011;32137;48.728;9.142;2023-03-20T03:59:43;2.42;;;1.38;;
46437;SDS011;32137;48.728;9.142;2023-03-20T04:02:13;0.90;;;0.60;;
46437;SDS011;32137;48.728;9.142;2023-03-20T04:04:43;1.42;;;0.80;;
46437;SDS011;32137;48.728;9.142;2023-03-20T04:07:12;2.50;;;1.35;;
46437;SDS011;32137;48.728;9.142;2023-03-20T04:09:38;3.10;;;1.90;;
46437;SDS011;32137;48.728;9.142;2023-03-20T04:12:04;0.90;;;0.70;;
46437;SDS011;32137;48.728;9.142;2023-03-20T04:14:30;1.40;;;1.00;;
46437;SDS011;32137;48.728;9.142;2023-03-20T04:16:56;2.10;;;1.33;;
46437;SDS011;32137;48.728;9.142;2023-03-20T04:19:21;1.73;;;1.20;;
46437;SDS011;32137;48.728;9.142;2023-03-20T04:21:47;1.95;;;1.02;;
46437;SDS011;32137;48.728;9.142;2023-03-20T04:24:12;1.10;;;0.70;;
46437;SDS011;32137;48.728;9.142;2023-03-20T04:26:39;2.70;;;2.05;;
46437;SDS011;32137;48.728;9.142;2023-03-20T04:29:05;1.95;;;1.00;;
46437;SDS011;32137;48.728;9.142;2023-03-20T04:31:30;2.63;;;0.80;;
46437;SDS011;32137;48.728;9.142;2023-03-20T04:33:56;1.63;;;0.80;;
46437;SDS011;32137;48.728;9.142;2023-03-20T04:36:22;3.72;;;0.90;;
46437;SDS011;32137;48.728;9.142;2023-03-20T04:38:47;1.83;;;1.15;;
46437;SDS011;32137;48.728;9.142;2023-03-20T04:41:13;2.55;;;1.08;;
46437;SDS011;32137;48.728;9.142;2023-03-20T04:43:39;10.68;;;2.20;;
46437;SDS011;32137;48.728;9.142;2023-03-20T04:46:05;1.42;;;0.70;;
46437;SDS011;32137;48.728;9.142;2023-03-20T04:48:30;0.80;;;0.50;;
46437;SDS011;32137;48.728;9.142;2023-03-20T04:50:56;1.70;;;0.90;;
46437;SDS011;32137;48.728;9.142;2023-03-20T04:53:22;2.05;;;0.77;;
46437;SDS011;32137;48.728;9.142;2023-03-20T04:55:47;1.20;;;0.70;;
46437;SDS011;32137;48.728;9.142;2023-03-20T04:58:14;1.33;;;0.93;;
46437;SDS011;32137;48.728;9.142;2023-03-20T05:00:40;1.50;;;0.93;;
46437;SDS011;32137;48.728;9.142;2023-03-20T05:03:07;1.20;;;0.90;;
46437;SDS011;32137;48.728;9.142;2023-03-20T05:05:32;1.60;;;0.80;;
46437;SDS011;32137;48.728;9.142;2023-03-20T05:08:01;1.50;;;0.90;;
46437;SDS011;32137;48.728;9.142;2023-03-20T05:10:28;1.63;;;0.95;;
46437;SDS011;32137;48.728;9.142;2023-03-20T05:12:53;2.28;;;1.10;;
46437;SDS011;32137;48.728;9.142;2023-03-20T05:15:19;3.83;;;1.17;;
46437;SDS011;32137;48.728;9.142;2023-03-20T05:17:44;2.63;;;1.10;;
46437;SDS011;32137;48.728;9.142;2023-03-20T05:20:11;3.13;;;1.40;;
46437;SDS011;32137;48.728;9.142;2023-03-20T05:22:36;6.57;;;2.50;;
46437;SDS011;32137;48.728;9.142;2023-03-20T05:25:02;2.97;;;1.80;;
46437;SDS011;32137;48.728;9.142;2023-03-20T05:27:28;3.65;;;1.88;;
46437;SDS011;32137;48.728;9.142;2023-03-20T05:29:53;3.20;;;1.77;;
46437;SDS011;32137;48.728;9.142;2023-03-20T05:32:19;2.00;;;1.40;;
46437;SDS011;32137;48.728;9.142;2023-03-20T05:34:45;1.38;;;1.23;;
46437;SDS011;32137;48.728;9.142;2023-03-20T05:37:10;1.77;;;1.15;;
46437;SDS011;32137;48.728;9.142;2023-03-20T05:39:36;1.88;;;1.30;;
46437;SDS011;32137;48.728;9.142;2023-03-20T05:42:01;1.65;;;1.33;;
46437;SDS011;32137;48.728;9.142;2023-03-20T05:44:27;4.57;;;1.55;;
46437;SDS011;32137;48.728;9.142;2023-03-20T05:46:52;2.03;;;1.13;;
46437;SDS011;32137;48.728;9.142;2023-03-20T05:49:18;1.50;;;1.17;;
46437;SDS011;32137;48.728;9.142;2023-03-20T05:51:43;4.78;;;2.15;;
46437;SDS011;32137;48.728;9.142;2023-03-20T05:54:09;3.10;;;1.52;;
46437;SDS011;32137;48.728;9.142;2023-03-20T05:56:34;4.93;;;1.20;;
46437;SDS011;32137;48.728;9.142;2023-03-20T05:59:01;1.88;;;1.20;;
46437;SDS011;32137;48.728;9.142;2023-03-20T06:01:26;3.38;;;1.30;;
46437;SDS011;32137;48.728;9.142;2023-03-20T06:03:52;2.05;;;1.30;;
46437;SDS011;32137;48.728;9.142;2023-03-20T06:06:17;3.40;;;1.60;;
46437;SDS011;32137;48.728;9.142;2023-03-20T06:08:43;2.20;;;1.15;;
46437;SDS011;32137;48.728;9.142;2023-03-20T06:11:08;2.90;;;1.58;;
46437;SDS011;32137;48.728;9.142;2023-03-20T06:13:34;4.88;;;1.83;;
46437;SDS011;32137;48.728;9.142;2023-03-20T06:16:00;3.88;;;1.20;;
46437;SDS011;32137;48.728;9.142;2023-03-20T06:18:26;1.90;;;1.30;;
46437;SDS011;32137;48.728;9.142;2023-03-20T06:20:52;1.75;;;1.08;;
46437;SDS011;32137;48.728;9.142;2023-03-20T06:23:21;4.65;;;1.90;;
46437;SDS011;32137;48.728;9.142;2023-03-20T06:25:47;2.17;;;1.50;;
46437;SDS011;32137;48.728;9.142;2023-03-20T06:28:13;2.97;;;1.40;;
46437;SDS011;32137;48.728;9.142;2023-03-20T06:30:38;1.42;;;1.17;;
46437;SDS011;32137;48.728;9.142;2023-03-20T06:33:07;2.22;;;1.33;;
46437;SDS011;32137;48.728;9.142;2023-03-20T06:35:33;3.65;;;2.10;;
46437;SDS011;32137;48.728;9.142;2023-03-20T06:37:59;5.50;;;2.92;;
46437;SDS011;32137;48.728;9.142;2023-03-20T06:40:25;3.72;;;2.63;;
46437;SDS011;32137;48.728;9.142;2023-03-20T06:42:51;8.18;;;3.60;;
46437;SDS011;32137;48.728;9.142;2023-03-20T06:45:17;5.07;;;3.05;;
46437;SDS011;32137;48.728;9.142;2023-03-20T06:47:43;6.50;;;3.65;;
46437;SDS011;32137;48.728;9.142;2023-03-20T06:50:09;4.57;;;2.90;;
46437;SDS011;32137;48.728;9.142;2023-03-20T06:52:35;7.68;;;3.33;;
46437;SDS011;32137;48.728;9.142;2023-03-20T06:55:01;3.58;;;2.35;;
46437;SDS011;32137;48.728;9.142;2023-03-20T06:57:27;3.20;;;2.30;;
46437;SDS011;32137;48.728;9.142;2023-03-20T06:59:53;6.50;;;2.55;;
46437;SDS011;32137;48.728;9.142;2023-03-20T07:02:18;4.60;;;1.85;;
46437;SDS011;32137;48.728;9.142;2023-03-20T07:04:44;4.50;;;2.00;;
46437;SDS011;32137;48.728;9.142;2023-03-20T07:07:10;3.00;;;1.70;;
46437;SDS011;32137;48.728;9.142;2023-03-20T07:09:36;5.38;;;2.08;;
46437;SDS011;32137;48.728;9.142;2023-03-20T07:12:02;2.53;;;1.75;;
46437;SDS011;32137;48.728;9.142;2023-03-20T07:14:28;2.40;;;1.50;;
46437;SDS011;32137;48.728;9.142;2023-03-20T07:16:54;7.97;;;2.38;;
46437;SDS011;32137;48.728;9.142;2023-03-20T07:19:20;3.08;;;2.33;;
46437;SDS011;32137;48.728;9.142;2023-03-20T07:21:46;15.85;;;3.05;;
46437;SDS011;32137;48.728;9.142;2023-03-20T07:24:12;2.70;;;1.80;;
46437;SDS011;32137;48.728;9.142;2023-03-20T07:26:38;2.72;;;1.58;;
46437;SDS011;32137;48.728;9.142;2023-03-20T07:29:05;3.13;;;1.83;;
46437;SDS011;32137;48.728;9.142;2023-03-20T07:31:31;3.15;;;1.63;;
46437;SDS011;32137;48.728;9.142;2023-03-20T07:33:56;4.90;;;2.03;;
46437;SDS011;32137;48.728;9.142;2023-03-20T07:36:22;7.65;;;1.85;;
46437;SDS011;32137;48.728;9.142;2023-03-20T07:38:48;2.47;;;1.55;;
46437;SDS011;32137;48.728;9.142;2023-03-20T07:41:13;2.13;;;1.25;;
46437;SDS011;32137;48.728;9.142;2023-03-20T07:43:39;1.52;;;1.20;;
46437;SDS011;32137;48.728;9.142;2023-03-20T07:46:06;2.47;;;1.40;;
46437;SDS011;32137;48.728;9.142;2023-03-20T07:48:33;4.30;;;1.42;;
46437;SDS011;32137;48.728;9.142;2023-03-20T07:51:00;6.85;;;1.42;;
46437;SDS011;32137;48.728;9.142;2023-03-20T07:53:25;5.60;;;1.85;;
46437;SDS011;32137;48.728;9.142;2023-03-20T07:55:51;4.90;;;1.83;;
46437;SDS011;32137;48.728;9.142;2023-03-20T07:58:17;3.25;;;1.80;;
46437;SDS011;32137;48.728;9.142;2023-03-20T08:00:43;3.88;;;1.50;;
46437;SDS011;32137;48.728;9.142;2023-03-20T08:03:09;2.78;;;1.75;;
46437;SDS011;32137;48.728;9.142;2023-03-20T08:05:34;5.25;;;1.98;;
46437;SDS011;32137;48.728;9.142;2023-03-20T08:08:00;4.25;;;1.70;;
46437;SDS011;32137;48.728;9.142;2023-03-20T08:10:26;2.17;;;1.38;;
46437;SDS011;32137;48.728;9.142;2023-03-20T08:12:52;2.80;;;1.60;;
46437;SDS011;32137;48.728;9.142;2023-03-20T08:15:17;3.67;;;1.65;;
46437;SDS011;32137;48.728;9.142;2023-03-20T08:17:43;5.28;;;3.17;;
46437;SDS011;32137;48.728;9.142;2023-03-20T08:20:10;2.45;;;1.60;;
46437;SDS011;32137;48.728;9.142;2023-03-20T08:22:37;3.25;;;1.73;;
46437;SDS011;32137;48.728;9.142;2023-03-20T08:25:02;4.35;;;1.90;;
46437;SDS011;32137;48.728;9.142;2023-03-20T08:27:28;3.92;;;1.50;;
46437;SDS011;32137;48.728;9.142;2023-03-20T08:29:55;7.30;;;2.08;;
46437;SDS011;32137;48.728;9.142;2023-03-20T08:32:20;2.70;;;2.13;;
46437;SDS011;32137;48.728;9.142;2023-03-20T08:34:46;2.53;;;1.63;;
46437;SDS011;32137;48.728;9.142;2023-03-20T08:37:11;3.53;;;1.65;;
46437;SDS011;32137;48.728;9.142;2023-03-20T08:39:38;3.97;;;1.88;;
46437;SDS011;32137;48.728;9.142;2023-03-20T08:42:04;3.63;;;1.98;;
46437;SDS011;32137;48.728;9.142;2023-03-20T08:44:30;1.88;;;1.50;;
46437;SDS011;32137;48.728;9.142;2023-03-20T08:46:56;6.25;;;1.95;;
46437;SDS011;32137;48.728;9.142;2023-03-20T08:49:22;3.60;;;2.05;;
46437;SDS011;32137;48.728;9.142;2023-03-20T08:51:48;3.55;;;1.90;;
46437;SDS011;32137;48.728;9.142;2023-03-20T08:54:14;2.67;;;1.77;;
46437;SDS011;32137;48.728;9.142;2023-03-20T08:56:42;6.53;;;2.22;;
46437;SDS011;32137;48.728;9.142;2023-03-20T08:59:08;8.45;;;2.42;;
46437;SDS011;32137;48.728;9.142;2023-03-20T09:01:34;4.93;;;1.80;;
46437;SDS011;32137;48.728;9.142;2023-03-20T09:04:00;2.15;;;1.67;;
46437;SDS011;32137;48.728;9.142;2023-03-20T09:06:25;4.05;;;1.50;;
46437;SDS011;32137;48.728;9.142;2023-03-20T09:08:53;3.22;;;1.42;;
46437;SDS011;32137;48.728;9.142;2023-03-20T09:11:18;2.08;;;1.60;;
46437;SDS011;32137;48.728;9.142;2023-03-20T09:13:44;2.88;;;1.42;;
46437;SDS011;32137;48.728;9.142;2023-03-20T09:16:10;3.50;;;1.85;;
46437;SDS011;32137;48.728;9.142;2023-03-20T09:18:35;1.98;;;1.77;;
46437;SDS011;32137;48.728;9.142;2023-03-20T09:21:01;4.20;;;1.85;;
46437;SDS011;32137;48.728;9.142;2023-03-20T09:23:27;4.13;;;1.70;;
46437;SDS011;32137;48.728;9.142;2023-03-20T09:25:52;4.43;;;2.40;;
46437;SDS011;32137;48.728;9.142;2023-03-20T09:28:18;13.82;;;2.05;;
46437;SDS011;32137;48.728;9.142;2023-03-20T09:30:43;3.58;;;1.85;;
46437;SDS011;32137;48.728;9.142;2023-03-20T09:33:09;3.03;;;2.00;;
46437;SDS011;32137;48.728;9.142;2023-03-20T09:35:35;3.35;;;2.33;;
46437;SDS011;32137;48.728;9.142;2023-03-20T09:38:01;5.65;;;2.45;;
46437;SDS011;32137;48.728;9.142;2023-03-20T09:40:41;4.25;;;2.40;;
46437;SDS011;32137;48.728;9.142;2023-03-20T09:45:49;2.53;;;1.63;;
46437;SDS011;32137;48.728;9.142;2023-03-20T09:54:17;4.32;;;1.83;;
46437;SDS011;32137;48.728;9.142;2023-03-20T09:56:49;2.70;;;1.70;;
46437;SDS011;32137;48.728;9.142;2023-03-20T09:59:16;4.70;;;2.08;;
46437;SDS011;32137;48.728;9.142;2023-03-20T10:02:00;4.13;;;1.98;;
46437;SDS011;32137;48.728;9.142;2023-03-20T10:04:38;5.63;;;2.25;;
46437;SDS011;32137;48.728;9.142;2023-03-20T10:07:04;2.90;;;1.48;;
46437;SDS011;32137;48.728;9.142;2023-03-20T10:09:34;2.60;;;1.80;;
46437;SDS011;32137;48.728;9.142;2023-03-20T10:15:09;2.65;;;1.55;;
46437;SDS011;32137;48.728;9.142;2023-03-20T10:23:32;2.45;;;1.85;;
46437;SDS011;32137;48.728;9.142;2023-03-20T10:26:11;2.22;;;1.70;;
46437;SDS011;32137;48.728;9.142;2023-03-20T10:28:45;2.00;;;1.35;;
46437;SDS011;32137;48.728;9.142;2023-03-20T10:42:29;4.13;;;1.95;;
46437;SDS011;32137;48.728;9.142;2023-03-20T10:45:25;10.32;;;3.05;;
46437;SDS011;32137;48.728;9.142;2023-03-20T10:48:06;4.20;;;2.05;;
46437;SDS011;32137;48.728;9.142;2023-03-20T10:50:44;3.55;;;1.38;;
46437;SDS011;32137;48.728;9.142;2023-03-20T10:53:20;1.88;;;1.50;;
46437;SDS011;32137;48.728;9.142;2023-03-20T10:55:56;1.95;;;1.50;;
46437;SDS011;32137;48.728;9.142;2023-03-20T10:58:27;5.97;;;2.03;;
46437;SDS011;32137;48.728;9.142;2023-03-20T11:00:56;2.55;;;1.85;;
46437;SDS011;32137;48.728;9.142;2023-03-20T11:03:23;3.05;;;1.73;;
46437;SDS011;32137;48.728;9.142;2023-03-20T11:06:37;3.50;;;2.22;;
46437;SDS011;32137;48.728;9.142;2023-03-20T11:08:45;2.58;;;1.88;;
46437;SDS011;32137;48.728;9.142;2023-03-20T11:11:13;4.10;;;1.88;;
46437;SDS011;32137;48.728;9.142;2023-03-20T11:13:45;2.88;;;1.90;;
46437;SDS011;32137;48.728;9.142;2023-03-20T11:18:45;2.85;;;1.48;;
46437;SDS011;32137;48.728;9.142;2023-03-20T11:21:17;3.38;;;1.65;;
46437;SDS011;32137;48.728;9.142;2023-03-20T11:23:53;1.58;;;1.35;;
46437;SDS011;32137;48.728;9.142;2023-03-20T11:26:29;3.03;;;1.67;;
46437;SDS011;32137;48.728;9.142;2023-03-20T11:29:01;4.90;;;2.85;;
46437;SDS011;32137;48.728;9.142;2023-03-20T11:31:35;2.00;;;1.35;;
46437;SDS011;32137;48.728;9.142;2023-03-20T11:36:29;4.60;;;1.92;;
46437;SDS011;32137;48.728;9.142;2023-03-20T11:41:34;5.10;;;1.92;;
46437;SDS011;32137;48.728;9.142;2023-03-20T11:49:28;5.85;;;4.05;;
46437;SDS011;32137;48.728;9.142;2023-03-20T11:52:13;6.25;;;3.78;;
46437;SDS011;32137;48.728;9.142;2023-03-20T11:54:45;4.95;;;3.83;;
46437;SDS011;32137;48.728;9.142;2023-03-20T12:02:48;9.45;;;3.88;;
46437;SDS011;32137;48.728;9.142;2023-03-20T12:08:02;5.70;;;4.20;;
46437;SDS011;32137;48.728;9.142;2023-03-20T12:10:34;4.65;;;3.60;;
46437;SDS011;32137;48.728;9.142;2023-03-20T12:13:05;4.18;;;3.30;;
46437;SDS011;32137;48.728;9.142;2023-03-20T12:15:39;6.05;;;3.63;;
46437;SDS011;32137;48.728;9.142;2023-03-20T12:18:12;4.10;;;3.13;;
46437;SDS011;32137;48.728;9.142;2023-03-20T12:21:23;7.53;;;4.80;;
46437;SDS011;32137;48.728;9.142;2023-03-20T12:23:58;5.47;;;3.10;;
46437;SDS011;32137;48.728;9.142;2023-03-20T12:29:27;4.50;;;3.30;;
46437;SDS011;32137;48.728;9.142;2023-03-20T12:37:14;5.55;;;2.75;;
46437;SDS011;32137;48.728;9.142;2023-03-20T12:40:00;5.63;;;3.13;;
46437;SDS011;32137;48.728;9.142;2023-03-20T12:45:13;3.90;;;2.92;;
46437;SDS011;32137;48.728;9.142;2023-03-20T12:51:06;6.43;;;2.85;;
46437;SDS011;32137;48.728;9.142;2023-03-20T12:53:47;4.93;;;2.83;;
46437;SDS011;32137;48.728;9.142;2023-03-20T13:19:16;4.05;;;2.40;;
46437;SDS011;32137;48.728;9.142;2023-03-20T13:36:23;3.90;;;2.50;;
46437;SDS011;32137;48.728;9.142;2023-03-20T13:38:58;3.15;;;2.20;;
46437;SDS011;32137;48.728;9.142;2023-03-20T13:42:03;7.10;;;2.55;;
46437;SDS011;32137;48.728;9.142;2023-03-20T13:44:47;9.23;;;2.95;;
46437;SDS011;32137;48.728;9.142;2023-03-20T13:47:31;8.77;;;3.40;;
46437;SDS011;32137;48.728;9.142;2023-03-20T13:50:11;6.80;;;3.20;;
46437;SDS011;32137;48.728;9.142;2023-03-20T13:53:29;7.32;;;3.38;;
46437;SDS011;32137;48.728;9.142;2023-03-20T14:05:10;5.32;;;3.20;;
46437;SDS011;32137;48.728;9.142;2023-03-20T14:07:54;5.97;;;3.57;;
46437;SDS011;32137;48.728;9.142;2023-03-20T14:11:03;4.18;;;3.10;;
46437;SDS011;32137;48.728;9.142;2023-03-20T14:13:43;4.15;;;3.10;;
46437;SDS011;32137;48.728;9.142;2023-03-20T14:16:16;7.55;;;2.97;;
46437;SDS011;32137;48.728;9.142;2023-03-20T14:19:35;5.15;;;2.63;;
46437;SDS011;32137;48.728;9.142;2023-03-20T14:21:55;3.87;;;2.77;;
46437;SDS011;32137;48.728;9.142;2023-03-20T14:24:34;6.05;;;2.80;;
46437;SDS011;32137;48.728;9.142;2023-03-20T14:27:14;8.20;;;3.13;;
46437;SDS011;32137;48.728;9.142;2023-03-20T14:29:45;6.93;;;3.22;;
46437;SDS011;32137;48.728;9.142;2023-03-20T14:32:31;5.57;;;3.60;;
46437;SDS011;32137;48.728;9.142;2023-03-20T14:35:22;3.25;;;2.45;;
46437;SDS011;32137;48.728;9.142;2023-03-20T14:38:29;5.25;;;2.90;;
46437;SDS011;32137;48.728;9.142;2023-03-20T14:41:11;4.45;;;2.55;;
46437;SDS011;32137;48.728;9.142;2023-03-20T14:44:12;7.47;;;2.88;;
46437;SDS011;32137;48.728;9.142;2023-03-20T15:09:44;2.70;;;1.90;;
46437;SDS011;32137;48.728;9.142;2023-03-20T15:12:16;3.25;;;2.05;;
46437;SDS011;32137;48.728;9.142;2023-03-20T15:15:00;4.47;;;0.98;;
46437;SDS011;32137;48.728;9.142;2023-03-20T15:17:40;2.53;;;1.60;;
46437;SDS011;32137;48.728;9.142;2023-03-20T15:20:21;5.88;;;1.35;;
46437;SDS011;32137;48.728;9.142;2023-03-20T15:22:55;3.95;;;1.02;;
46437;SDS011;32137;48.728;9.142;2023-03-20T15:25:31;4.10;;;1.10;;
46437;SDS011;32137;48.728;9.142;2023-03-20T15:28:12;5.97;;;1.15;;
46437;SDS011;32137;48.728;9.142;2023-03-20T15:30:45;2.70;;;0.90;;
46437;SDS011;32137;48.728;9.142;2023-03-20T15:33:15;2.88;;;1.02;;
46437;SDS011;32137;48.728;9.142;2023-03-20T15:35:44;3.83;;;1.47;;
46437;SDS011;32137;48.728;9.142;2023-03-20T15:38:13;7.07;;;2.40;;
46437;SDS011;32137;48.728;9.142;2023-03-20T15:40:40;2.85;;;1.20;;
46437;SDS011;32137;48.728;9.142;2023-03-20T15:43:11;1.88;;;1.10;;
46437;SDS011;32137;48.728;9.142;2023-03-20T15:45:41;2.22;;;1.38;;
46437;SDS011;32137;48.728;9.142;2023-03-20T15:48:10;3.47;;;2.00;;
46437;SDS011;32137;48.728;9.142;2023-03-20T15:50:53;6.03;;;1.25;;
46437;SDS011;32137;48.728;9.142;2023-03-20T15:53:45;1.90;;;0.88;;
46437;SDS011;32137;48.728;9.142;2023-03-20T15:56:19;3.08;;;1.40;;
46437;SDS011;32137;48.728;9.142;2023-03-20T15:58:49;2.50;;;1.33;;
46437;SDS011;32137;48.728;9.142;2023-03-20T16:01:19;2.85;;;1.63;;
46437;SDS011;32137;48.728;9.142;2023-03-20T16:03:47;4.35;;;1.40;;
46437;SDS011;32137;48.728;9.142;2023-03-20T16:06:15;2.92;;;1.40;;
46437;SDS011;32137;48.728;9.142;2023-03-20T16:08:44;2.33;;;1.30;;
46437;SDS011;32137;48.728;9.142;2023-03-20T16:11:19;2.50;;;1.75;;
46437;SDS011;32137;48.728;9.142;2023-03-20T16:13:46;2.05;;;1.30;;
46437;SDS011;32137;48.728;9.142;2023-03-20T16:16:13;3.95;;;1.70;;
46437;SDS011;32137;48.728;9.142;2023-03-20T16:18:45;3.17;;;1.65;;
46437;SDS011;32137;48.728;9.142;2023-03-20T16:21:14;5.57;;;1.60;;
46437;SDS011;32137;48.728;9.142;2023-03-20T16:23:50;4.75;;;1.90;;
46437;SDS011;32137;48.728;9.142;2023-03-20T16:26:18;3.83;;;1.33;;
46437;SDS011;32137;48.728;9.142;2023-03-20T16:28:46;2.80;;;1.27;;
46437;SDS011;32137;48.728;9.142;2023-03-20T16:31:15;3.08;;;1.50;;
46437;SDS011;32137;48.728;9.142;2023-03-20T16:33:44;4.22;;;1.50;;
46437;SDS011;32137;48.728;9.142;2023-03-20T16:36:15;3.75;;;1.70;;
46437;SDS011;32137;48.728;9.142;2023-03-20T16:41:33;2.50;;;1.58;;
46437;SDS011;32137;48.728;9.142;2023-03-20T16:44:06;5.43;;;1.48;;
46437;SDS011;32137;48.728;9.142;2023-03-20T16:46:49;4.85;;;1.77;;
46437;SDS011;32137;48.728;9.142;2023-03-20T16:51:59;4.38;;;2.22;;
46437;SDS011;32137;48.728;9.142;2023-03-20T16:54:27;3.50;;;1.65;;
46437;SDS011;32137;48.728;9.142;2023-03-20T16:56:55;2.53;;;1.42;;
46437;SDS011;32137;48.728;9.142;2023-03-20T16:59:22;2.25;;;1.25;;
46437;SDS011;32137;48.728;9.142;2023-03-20T17:01:49;3.38;;;1.45;;
46437;SDS011;32137;48.728;9.142;2023-03-20T17:04:37;2.95;;;1.92;;
46437;SDS011;32137;48.728;9.142;2023-03-20T17:07:06;2.25;;;1.50;;
46437;SDS011;32137;48.728;9.142;2023-03-20T17:09:32;4.70;;;1.40;;
46437;SDS011;32137;48.728;9.142;2023-03-20T17:12:10;4.38;;;1.60;;
46437;SDS011;32137;48.728;9.142;2023-03-20T17:14:38;5.32;;;1.48;;
46437;SDS011;32137;48.728;9.142;2023-03-20T17:17:10;3.88;;;1.92;;
46437;SDS011;32137;48.728;9.142;2023-03-20T17:19:45;2.83;;;1.70;;
46437;SDS011;32137;48.728;9.142;2023-03-20T17:22:14;5.30;;;2.25;;
46437;SDS011;32137;48.728;9.142;2023-03-20T17:24:42;5.70;;;2.22;;
46437;SDS011;32137;48.728;9.142;2023-03-20T17:27:11;2.88;;;1.60;;
46437;SDS011;32137;48.728;9.142;2023-03-20T17:29:38;3.00;;;1.35;;
46437;SDS011;32137;48.728;9.142;2023-03-20T17:32:11;3.90;;;1.55;;
46437;SDS011;32137;48.728;9.142;2023-03-20T17:34:38;3.53;;;1.50;;
46437;SDS011;32137;48.728;9.142;2023-03-20T17:37:04;3.67;;;1.30;;
46437;SDS011;32137;48.728;9.142;2023-03-20T17:39:31;5.05;;;1.60;;
46437;SDS011;32137;48.728;9.142;2023-03-20T17:41:57;4.05;;;1.73;;
46437;SDS011;32137;48.728;9.142;2023-03-20T17:44:23;3.50;;;1.80;;
46437;SDS011;32137;48.728;9.142;2023-03-20T17:46:48;9.38;;;2.25;;
46437;SDS011;32137;48.728;9.142;2023-03-20T17:49:15;6.43;;;1.63;;
46437;SDS011;32137;48.728;9.142;2023-03-20T17:51:43;3.75;;;2.20;;
46437;SDS011;32137;48.728;9.142;2023-03-20T17:54:09;3.47;;;2.28;;
46437;SDS011;32137;48.728;9.142;2023-03-20T17:56:35;3.78;;;1.85;;
46437;SDS011;32137;48.728;9.142;2023-03-20T17:59:02;3.15;;;1.45;;
46437;SDS011;32137;48.728;9.142;2023-03-20T18:01:28;6.28;;;2.05;;
46437;SDS011;32137;48.728;9.142;2023-03-20T18:03:54;3.85;;;2.15;;
46437;SDS011;32137;48.728;9.142;2023-03-20T18:06:27;6.00;;;2.22;;
46437;SDS011;32137;48.728;9.142;2023-03-20T18:08:55;6.03;;;1.83;;
46437;SDS011;32137;48.728;9.142;2023-03-20T18:11:22;5.50;;;2.30;;
46437;SDS011;32137;48.728;9.142;2023-03-20T18:13:48;5.60;;;2.30;;
46437;SDS011;32137;48.728;9.142;2023-03-20T18:16:21;3.58;;;1.75;;
46437;SDS011;32137;48.728;9.142;2023-03-20T18:18:48;5.30;;;2.28;;
46437;SDS011;32137;48.728;9.142;2023-03-20T18:21:15;5.18;;;1.77;;